Time;durP1;ratioP1;P1;durP2;ratioP2;P2;SDS_P1;SDS_P2;PMS_P1;PMS_P2;Temp;Humidity;BMP_temperature;BMP_pressure;BME280_temperature;BME280_humidity;BME280_pressure;Samples;Min_cycle;Max_cycle;Signal;HPM_P1;HPM_P2
2023/03/28 00:00:06;;;;;;;;;;;5.70;82.80;;;5.92;53.19;99564.63;4960582;28;123936;-75
2023/03/28 00:02:34;;;;;;;;;;;5.70;82.80;;;5.92;53.32;99561.88;4954351;28;114019;-75
2023/03/28 00:05:01;;;;;;;;;;;5.70;82.50;;;5.90;53.22;99567.59;4973952;28;112803;-76
2023/03/28 00:07:28;;;;;;;;;;;5.70;82.50;;;5.91;52.75;99566.53;4958017;28;123306;-75
2023/03/28 00:10:00;;;;;;;;;;;5.70;82.40;;;5.92;53.29;99562.69;4985639;28;124076;-76
2023/03/28 00:12:27;;;;;;;;;;;5.70;82.40;;;5.95;53.12;99566.84;4966909;28;114608;-76
2023/03/28 00:14:56;;;;;;;;;;;5.70;82.50;;;5.97;53.03;99567.44;4956202;28;112621;-75
2023/03/28 00:17:23;;;;;;;;;;;5.70;82.50;;;6.00;52.71;99580.63;4960327;28;124328;-75
2023/03/28 00:19:52;;;;;;;;;;;5.80;82.60;;;6.01;52.83;99574.03;4967955;28;123493;-75
2023/03/28 00:22:21;;;;;;;;;;;5.80;82.60;;;6.03;53.03;99588.31;4964704;28;114225;-75
2023/03/28 00:24:49;;;;;;;;;;;7.10;83.70;;;6.02;53.02;99592.16;4958801;28;113634;-75
2023/03/28 00:27:16;;;;;;;;;;;5.80;82.40;;;6.02;52.53;99585.81;4993865;28;124362;-75
2023/03/28 00:29:43;;;;;;;;;;;5.80;82.30;;;6.02;52.49;99583.94;4972838;28;123422;-75
2023/03/28 00:32:09;;;;;;;;;;;5.80;82.90;;;6.04;52.53;99586.38;4970834;28;114552;-75
2023/03/28 00:34:36;;;;;;;;;;;5.80;82.30;;;6.04;52.87;99592.69;4970765;28;114189;-75
2023/03/28 00:37:05;;;;;;;;;;;5.80;82.20;;;6.06;52.36;99597.94;4970041;28;124615;-75
2023/03/28 00:39:32;;;;;;;;;;;5.80;82.10;;;6.07;52.54;99597.69;4990837;28;122683;-75
2023/03/28 00:42:12;;;;;;;;;;;5.80;82.00;;;6.07;52.58;99597.69;4966207;28;115484;-78
2023/03/28 00:44:46;;;;;;;;;;;5.80;82.00;;;6.08;52.61;99599.31;4999897;28;115357;-75
2023/03/28 00:47:45;;;;;;;;;;;5.80;82.00;;;6.04;52.26;99600.94;4970325;28;124337;-75
2023/03/28 00:50:32;;;;;;;;;;;5.80;81.80;;;5.98;52.10;99610.22;4974701;28;123375;-75
2023/03/28 00:53:20;;;;;;;;;;;5.80;81.50;;;5.98;52.17;99607.47;4957414;28;114926;-75
2023/03/28 00:56:00;;;;;;;;;;;5.80;81.60;;;5.95;52.46;99603.34;4966211;28;114040;-75
2023/03/28 00:58:31;;;;;;;;;;;5.80;81.60;;;5.95;52.77;99600.59;4970369;28;124785;-75
2023/03/28 01:01:18;;;;;;;;;;;5.80;81.70;;;5.97;52.50;99608.56;4994914;28;124088;-75
2023/03/28 01:03:55;;;;;;;;;;;5.80;81.60;;;5.97;52.49;99606.66;4975890;28;113405;-76
2023/03/28 01:06:26;;;;;;;;;;;5.70;81.50;;;5.98;52.06;99612.97;4966764;28;114057;-75
2023/03/28 01:08:53;;;;;;;;;;;5.80;81.50;;;5.97;52.43;99612.13;4971809;28;124368;-76
2023/03/28 01:11:24;;;;;;;;;;;5.80;81.50;;;5.97;52.24;99603.09;4968370;28;123740;-75
2023/03/28 01:13:57;;;;;;;;;;;5.80;81.40;;;6.00;52.37;99605.31;4991466;28;114460;-76
2023/03/28 01:16:29;;;;;;;;;;;5.70;81.30;;;5.99;51.77;99603.63;4988593;28;113978;-75
2023/03/28 01:19:01;;;;;;;;;;;5.70;81.30;;;5.99;51.95;99598.13;4991447;28;124574;-75
2023/03/28 01:21:54;;;;;;;;;;;5.70;81.30;;;5.99;51.62;99600.88;4969230;28;123957;-75
2023/03/28 01:25:04;;;;;;;;;;;5.80;81.30;;;5.96;52.16;99606.91;4991494;28;113752;-75
2023/03/28 01:28:00;;;;;;;;;;;5.70;81.20;;;5.93;52.35;99604.66;4967216;28;114487;-75
2023/03/28 01:30:45;;;;;;;;;;;5.70;81.10;;;5.91;51.97;99606.81;4956633;28;124144;-75
2023/03/28 01:33:34;;;;;;;;;;;5.70;81.10;;;5.90;52.25;99606.00;4962398;28;123961;-75
2023/03/28 01:39:19;;;;;;;;;;;5.70;80.90;;;5.81;51.97;99618.56;4958593;28;115369;-75
2023/03/28 01:41:58;;;;;;;;;;;5.60;80.80;;;5.81;52.35;99623.22;4954541;28;124133;-76
2023/03/28 01:44:43;;;;;;;;;;;5.60;80.90;;;5.82;52.55;99630.34;4968792;28;124506;-76
2023/03/28 01:47:22;;;;;;;;;;;5.60;81.00;;;5.83;52.14;99621.00;4962122;28;114477;-75
2023/03/28 01:50:39;;;;;;;;;;;5.60;81.10;;;5.84;52.49;99631.75;4986817;28;112884;-76
2023/03/28 01:53:16;;;;;;;;;;;5.60;81.20;;;5.82;51.81;99619.38;4951653;28;123288;-75
2023/03/28 01:56:08;;;;;;;;;;;5.60;81.20;;;5.81;52.50;99621.28;4957480;28;123155;-75
2023/03/28 01:58:58;;;;;;;;;;;5.60;81.20;;;5.80;51.76;99624.28;4985044;28;113956;-76
2023/03/28 02:01:58;;;;;;;;;;;5.60;81.20;;;5.79;52.49;99625.38;4968252;28;113278;-76
2023/03/28 02:04:28;;;;;;;;;;;5.60;81.30;;;5.79;52.34;99617.97;4951884;28;124365;-76
2023/03/28 02:06:55;;;;;;;;;;;5.60;81.40;;;5.79;52.24;99628.13;4963262;28;123940;-76
2023/03/28 02:09:23;;;;;;;;;;;5.60;81.50;;;5.77;52.93;99631.13;4967834;28;114249;-76
2023/03/28 02:14:42;;;;;;;;;;;5.60;81.40;;;5.66;52.44;99627.44;4964316;28;122917;-76
2023/03/28 02:17:27;;;;;;;;;;;5.50;81.30;;;5.62;52.85;99636.47;4957512;28;124228;-76
2023/03/28 02:19:58;;;;;;;;;;;5.50;81.40;;;5.60;53.05;99630.41;4985727;28;113308;-75
2023/03/28 02:25:50;;;;;;;;;;;5.50;81.80;;;5.59;53.07;99634.22;4968727;28;124605;-76
2023/03/28 02:28:58;;;;;;;;;;;5.40;81.70;;;5.61;52.86;99635.63;4952573;28;124268;-76
2023/03/28 02:31:24;;;;;;;;;;;5.40;81.80;;;5.60;53.36;99633.16;4988039;28;115691;-76
2023/03/28 02:33:54;;;;;;;;;;;5.40;81.80;;;5.59;53.19;99632.34;4985979;28;114841;-76
2023/03/28 02:36:43;;;;;;;;;;;5.40;81.90;;;5.60;52.73;99636.72;4965365;28;123750;-76
2023/03/28 02:39:37;;;;;;;;;;;5.40;81.90;;;5.58;52.77;99636.16;4953501;28;123087;-76
2023/03/28 02:45:44;;;;;;;;;;;5.40;82.00;;;5.60;52.86;99631.25;4957958;28;115002;-76
2023/03/28 02:48:32;;;;;;;;;;;5.40;82.00;;;5.59;53.28;99629.59;4974719;28;124139;-76
2023/03/28 02:51:03;;;;;;;;;;;5.40;82.10;;;5.58;53.71;99625.19;4964048;28;124021;-76
2023/03/28 02:54:08;;;;;;;;;;;5.40;82.10;;;5.59;52.75;99629.59;4969606;28;114203;-76
2023/03/28 02:57:05;;;;;;;;;;;5.40;82.10;;;5.57;52.90;99631.75;4988745;28;113161;-75
2023/03/28 02:59:37;;;;;;;;;;;5.40;82.10;;;5.54;52.67;99637.78;4961149;28;124175;-76
2023/03/28 03:02:08;;;;;;;;;;;5.40;82.10;;;5.54;53.23;99629.53;4987078;28;123654;-76
2023/03/28 03:04:36;;;;;;;;;;;5.40;82.10;;;5.53;52.96;99631.47;4987373;28;114148;-76
2023/03/28 03:07:07;;;;;;;;;;;5.30;82.00;;;5.56;53.10;99635.56;4990613;28;113640;-76
2023/03/28 03:09:34;;;;;;;;;;;5.30;82.00;;;5.56;53.12;99632.81;4971698;28;124517;-76
2023/03/28 03:12:00;;;;;;;;;;;5.40;82.10;;;5.57;52.93;99637.25;4969569;28;122976;-75
2023/03/28 03:14:27;;;;;;;;;;;5.30;82.00;;;5.57;52.60;99628.19;4972362;28;114787;-75
2023/03/28 03:16:56;;;;;;;;;;;5.30;81.90;;;5.54;52.91;99633.09;4962488;28;113699;-75
2023/03/28 03:19:22;;;;;;;;;;;5.30;81.90;;;5.54;52.80;99635.03;4959259;28;124348;-77
2023/03/28 03:21:49;;;;;;;;;;;5.10;81.80;;;5.54;53.30;99633.09;4949269;28;123972;-77
2023/03/28 03:24:15;;;;;;;;;;;5.30;81.90;;;5.57;53.09;99641.91;4953342;28;115277;-75
2023/03/28 03:26:42;;;;;;;;;;;5.30;81.90;;;5.56;53.02;99632.00;4986101;28;115065;-75
2023/03/28 03:29:08;;;;;;;;;;;5.30;81.80;;;5.56;53.02;99632.81;4994951;28;124442;-76
2023/03/28 03:31:35;;;;;;;;;;;5.30;81.70;;;5.55;53.09;99631.19;4959168;28;123845;-75
2023/03/28 03:34:02;;;;;;;;;;;5.30;81.70;;;5.56;52.44;99630.09;4952608;28;114618;-76
2023/03/28 03:36:30;;;;;;;;;;;5.30;81.70;;;5.56;52.61;99634.75;4958177;28;113767;-75
2023/03/28 03:38:59;;;;;;;;;;;5.30;81.60;;;5.56;52.43;99632.00;4976841;28;123292;-75
2023/03/28 03:41:25;;;;;;;;;;;5.30;81.60;;;5.54;53.15;99627.63;4954620;28;123809;-75
2023/03/28 03:43:54;;;;;;;;;;;5.30;81.50;;;5.54;52.52;99629.53;4953802;28;114548;-75
2023/03/28 03:46:21;;;;;;;;;;;5.30;81.50;;;5.52;52.64;99632.53;4969540;28;112929;-75
2023/03/28 03:48:50;;;;;;;;;;;5.30;81.40;;;5.52;52.69;99631.72;4974049;28;123994;-75
2023/03/28 03:51:16;;;;;;;;;;;5.30;81.40;;;5.53;52.58;99633.34;4965774;28;122931;-75
2023/03/28 03:53:43;;;;;;;;;;;5.30;81.30;;;5.52;52.20;99642.69;4957582;28;114812;-75
2023/03/28 03:56:10;;;;;;;;;;;5.30;81.30;;;5.50;52.68;99634.69;4951841;28;113905;-75
2023/03/28 03:58:38;;;;;;;;;;;5.30;81.40;;;5.50;52.66;99636.63;4987092;28;123355;-75
2023/03/28 04:01:04;;;;;;;;;;;5.30;81.40;;;5.47;52.78;99629.75;5003064;28;123899;-75
2023/03/28 04:03:33;;;;;;;;;;;5.30;81.40;;;5.44;52.39;99627.50;4974492;28;115072;-75
2023/03/28 04:06:00;;;;;;;;;;;5.20;81.30;;;5.42;52.55;99628.84;4995183;28;113428;-75
2023/03/28 04:08:27;;;;;;;;;;;5.20;81.40;;;5.41;53.06;99629.94;4969598;28;124330;-75
2023/03/28 04:10:53;;;;;;;;;;;5.20;81.40;;;5.39;53.22;99632.94;4976059;28;123733;-75
2023/03/28 04:13:24;;;;;;;;;;;5.20;81.50;;;5.39;52.67;99640.34;4984692;28;114591;-75
2023/03/28 04:15:50;;;;;;;;;;;5.20;81.50;;;5.36;52.66;99636.19;4971325;28;113824;-75
2023/03/28 04:18:19;;;;;;;;;;;5.20;81.50;;;5.35;52.55;99631.81;4964131;28;123170;-75
2023/03/28 04:20:54;;;;;;;;;;;5.20;81.50;;;5.33;52.63;99633.97;4983088;28;123916;-75
2023/03/28 04:23:24;;;;;;;;;;;5.10;81.40;;;5.30;52.87;99635.31;4983893;28;114411;-75
2023/03/28 04:25:54;;;;;;;;;;;5.10;81.30;;;5.28;53.22;99648.44;4957087;28;113955;-75
2023/03/28 04:28:23;;;;;;;;;;;5.10;81.30;;;5.28;52.51;99648.44;4954406;28;124353;-75
2023/03/28 04:30:56;;;;;;;;;;;5.10;81.30;;;5.26;52.64;99650.59;4952013;28;123986;-75
2023/03/28 04:33:26;;;;;;;;;;;5.10;81.30;;;5.24;52.57;99655.53;4960424;28;115059;-75
2023/03/28 04:36:01;;;;;;;;;;;5.10;81.30;;;5.23;52.67;99662.06;4970085;28;113820;-75
2023/03/28 04:38:30;;;;;;;;;;;5.00;81.20;;;5.20;52.41;99668.06;4953915;28;124168;-75
2023/03/28 04:40:57;;;;;;;;;;;5.00;81.30;;;5.19;53.38;99671.09;4983843;28;123868;-75
2023/03/28 04:43:28;;;;;;;;;;;5.00;81.40;;;5.17;53.09;99671.34;4970525;28;114582;-75
2023/03/28 04:45:57;;;;;;;;;;;5.00;81.40;;;5.14;52.80;99671.03;4969903;28;113800;-75
2023/03/28 04:48:25;;;;;;;;;;;5.00;81.50;;;5.13;52.87;99675.69;4972907;28;123690;-75
2023/03/28 04:50:52;;;;;;;;;;;4.90;81.40;;;5.12;53.05;99675.91;4999866;28;124538;-75
2023/03/28 04:53:21;;;;;;;;;;;4.90;81.40;;;5.11;52.94;99680.56;5004293;28;114382;-75
2023/03/28 04:55:50;;;;;;;;;;;4.90;81.50;;;5.09;52.90;99678.06;4969495;28;113139;-75
2023/03/28 04:58:18;;;;;;;;;;;4.90;81.60;;;5.09;53.55;99680.00;4997341;28;124226;-75
2023/03/28 05:00:48;;;;;;;;;;;4.90;81.60;;;5.08;52.74;99681.09;4962183;28;124342;-75
2023/03/28 05:03:19;;;;;;;;;;;4.90;81.60;;;5.07;53.34;99684.91;4964357;28;115528;-76
2023/03/28 05:05:46;;;;;;;;;;;4.90;81.50;;;5.04;53.02;99679.94;4959789;28;114875;-75
2023/03/28 05:08:16;;;;;;;;;;;4.90;81.60;;;5.04;53.24;99682.66;4986977;28;126067;-76
2023/03/28 05:10:44;;;;;;;;;;;4.80;81.50;;;5.05;53.37;99692.53;4962037;28;123836;-75
2023/03/28 05:13:11;;;;;;;;;;;4.90;81.80;;;5.06;53.87;99691.47;4955033;28;114015;-75
2023/03/28 05:15:39;;;;;;;;;;;4.80;81.80;;;5.08;53.07;99689.31;4968730;28;113565;-75
2023/03/28 05:18:05;;;;;;;;;;;6.40;83.50;;;5.08;52.79;99683.81;4984872;28;123748;-75
2023/03/28 05:20:33;;;;;;;;;;;4.80;82.10;;;5.11;53.43;99696.19;4966148;28;124212;-75
2023/03/28 05:23:00;;;;;;;;;;;4.90;82.40;;;5.12;53.54;99695.09;4985710;28;114450;-75
2023/03/28 05:25:27;;;;;;;;;;;4.90;82.30;;;5.12;53.65;99700.56;4958496;28;113966;-75
2023/03/28 05:27:54;;;;;;;;;;;4.90;82.40;;;5.12;53.32;99698.66;4986276;28;124268;-75
2023/03/28 05:30:20;;;;;;;;;;;4.90;82.20;;;5.12;53.33;99698.66;4969584;28;124017;-75
2023/03/28 05:32:46;;;;;;;;;;;4.80;82.10;;;5.12;53.59;99704.13;4971986;28;113516;-76
2023/03/28 05:35:14;;;;;;;;;;;4.90;82.20;;;5.13;52.95;99719.50;4986010;28;113978;-76
2023/03/28 05:37:52;;;;;;;;;;;4.90;82.20;;;5.14;53.45;99717.59;4968492;28;124324;-76
2023/03/28 05:40:19;;;;;;;;;;;4.90;82.10;;;5.12;53.19;99715.09;4969560;28;122978;-76
2023/03/28 05:42:45;;;;;;;;;;;4.90;82.20;;;5.15;53.29;99719.22;4949325;28;114129;-76
2023/03/28 05:45:11;;;;;;;;;;;4.90;82.20;;;5.15;53.19;99725.53;4964923;28;113604;-76
2023/03/28 05:47:40;;;;;;;;;;;4.90;82.20;;;5.17;52.87;99725.28;4966992;28;123375;-76
2023/03/28 05:50:07;;;;;;;;;;;4.90;82.20;;;5.18;53.30;99724.19;4986067;28;124037;-75
2023/03/28 05:52:39;;;;;;;;;;;4.90;82.20;;;5.20;53.43;99733.81;4970581;28;114800;-76
2023/03/28 05:55:06;;;;;;;;;;;4.90;82.10;;;5.20;53.31;99733.81;4967878;28;114102;-75
2023/03/28 05:57:32;;;;;;;;;;;4.90;82.10;;;5.23;53.30;99733.31;4966624;28;124346;-76
2023/03/28 05:59:59;;;;;;;;;;;4.90;82.10;;;5.25;53.33;99730.31;4982261;28;124369;-76
2023/03/28 06:02:28;;;;;;;;;;;5.00;82.10;;;5.27;53.23;99731.72;4959482;28;114497;-76
2023/03/28 06:04:54;;;;;;;;;;;5.00;82.10;;;5.31;53.16;99735.59;4980770;28;113681;-76
2023/03/28 06:07:21;;;;;;;;;;;5.00;82.00;;;5.35;52.85;99735.09;4956511;28;123505;-77
2023/03/28 06:09:48;;;;;;;;;;;5.00;82.00;;;5.40;52.98;99740.63;4985318;28;124045;-76
2023/03/28 06:12:14;;;;;;;;;;;5.00;82.00;;;5.43;52.83;99749.19;5001099;22;114471;-77
2023/03/28 06:14:43;;;;;;;;;;;6.50;83.30;;;5.47;52.82;99741.28;4968941;28;113482;-77
2023/03/28 06:17:09;;;;;;;;;;;5.10;82.00;;;5.53;52.59;99740.25;4950893;28;124782;-77
2023/03/28 06:19:39;;;;;;;;;;;5.20;82.10;;;5.58;52.26;99737.56;4951325;28;123990;-77
2023/03/28 06:22:05;;;;;;;;;;;5.20;82.00;;;5.61;52.83;99753.50;4957455;28;114130;-76
2023/03/28 06:24:31;;;;;;;;;;;5.30;82.00;;;5.66;52.06;99753.56;4965504;28;114052;-76
2023/03/28 06:26:58;;;;;;;;;;;5.30;82.00;;;5.71;52.46;99753.63;4951434;28;124028;-77
2023/03/28 06:29:24;;;;;;;;;;;5.40;82.00;;;5.79;52.26;99748.78;4954792;28;124479;-76
2023/03/28 06:31:54;;;;;;;;;;;5.40;82.10;;;5.87;52.30;99751.06;4950133;28;114512;-77
2023/03/28 06:34:27;;;;;;;;;;;5.50;82.10;;;5.97;52.54;99749.28;4925703;28;112711;-78
2023/03/28 06:36:54;;;;;;;;;;;5.60;82.20;;;6.07;52.24;99744.97;4948825;28;123903;-75
2023/03/28 06:39:20;;;;;;;;;;;5.60;82.10;;;6.18;52.26;99744.00;4952497;28;123918;-76
2023/03/28 06:41:47;;;;;;;;;;;5.70;82.10;;;6.30;52.57;99749.31;4950536;28;115389;-76
2023/03/28 06:44:13;;;;;;;;;;;5.70;82.10;;;6.38;51.92;99749.66;4966880;28;113753;-76
2023/03/28 06:46:39;;;;;;;;;;;5.90;82.10;;;6.44;51.79;99755.19;4948137;28;124643;-76
2023/03/28 06:49:08;;;;;;;;;;;5.90;81.40;;;6.49;51.33;99760.72;4949808;28;124072;-76
2023/03/28 06:51:34;;;;;;;;;;;6.00;81.40;;;6.56;51.54;99762.16;4960972;28;113537;-85
2023/03/28 06:54:03;;;;;;;;;;;6.10;81.20;;;6.62;51.29;99761.09;4951069;28;114005;-77
2023/03/28 06:56:29;;;;;;;;;;;6.10;81.00;;;6.60;50.18;99774.25;4952256;28;124503;-76
2023/03/28 06:58:56;;;;;;;;;;;6.20;79.50;;;6.58;50.43;99762.75;4950240;28;122961;-75
2023/03/28 07:01:24;;;;;;;;;;;6.20;79.60;;;6.67;49.90;99757.59;4952803;28;114152;-77
2023/03/28 07:03:54;;;;;;;;;;;6.30;79.70;;;6.75;49.63;99765.34;4929853;28;113043;-78
2023/03/28 07:06:20;;;;;;;;;;;6.30;79.40;;;6.81;49.75;99761.53;4946208;28;124205;-77
2023/03/28 07:08:46;;;;;;;;;;;6.40;79.50;;;6.90;49.38;99767.34;4952076;28;123335;-78
2023/03/28 07:11:13;;;;;;;;;;;6.40;79.40;;;6.99;49.09;99762.19;4966929;28;113351;-76
2023/03/28 07:13:42;;;;;;;;;;;6.50;79.10;;;7.06;49.08;99766.34;4949754;28;113324;-76
2023/03/28 07:16:15;;;;;;;;;;;6.60;78.90;;;7.12;49.04;99763.63;4948301;28;124762;-77
2023/03/28 07:18:42;;;;;;;;;;;6.60;78.40;;;7.19;48.63;99765.06;4947300;28;124437;-73
2023/03/28 07:21:10;;;;;;;;;;;6.70;78.40;;;7.27;48.30;99771.97;4935078;28;113656;-77
2023/03/28 07:23:38;;;;;;;;;;;6.80;78.60;;;7.33;48.41;99772.81;4961142;28;113663;-76
2023/03/28 07:26:06;;;;;;;;;;;6.80;77.80;;;7.37;47.91;99766.53;4959461;28;124945;-82
2023/03/28 07:28:35;;;;;;;;;;;6.90;77.80;;;7.39;47.77;99764.34;4953380;28;124306;-79
2023/03/28 07:31:03;;;;;;;;;;;6.90;77.20;;;7.40;47.63;99766.00;4952325;28;115454;-77
2023/03/28 07:33:33;;;;;;;;;;;6.90;77.00;;;7.43;47.74;99765.44;4950580;28;113929;-79
2023/03/28 07:36:00;;;;;;;;;;;7.00;76.80;;;7.44;47.44;99761.63;4950799;28;124089;-76
2023/03/28 07:38:26;;;;;;;;;;;7.00;76.70;;;7.47;47.51;99761.09;4934461;28;122815;-78
2023/03/28 07:40:53;;;;;;;;;;;7.00;76.50;;;7.48;48.15;99764.66;4947276;28;114700;-76
2023/03/28 07:43:22;;;;;;;;;;;7.10;76.20;;;7.46;47.36;99764.91;4951440;28;113401;-77
2023/03/28 07:45:48;;;;;;;;;;;7.10;76.10;;;7.44;47.31;99771.78;4947552;28;123852;-77
2023/03/28 07:48:16;;;;;;;;;;;7.10;75.90;;;7.48;47.48;99770.97;4949424;28;124421;-78
2023/03/28 07:50:52;;;;;;;;;;;7.10;75.70;;;7.45;47.08;99774.25;4956706;28;114390;-78
2023/03/28 07:53:18;;;;;;;;;;;7.20;75.50;;;7.45;46.73;99778.94;4950039;28;113819;-75
2023/03/28 07:55:44;;;;;;;;;;;7.20;74.60;;;7.47;47.00;99782.25;4949860;28;124170;-78
2023/03/28 07:58:11;;;;;;;;;;;7.20;74.70;;;7.49;47.16;99778.13;4954890;28;124136;-77
2023/03/28 08:00:39;;;;;;;;;;;7.20;74.90;;;7.51;46.65;99786.13;4950769;28;114384;-77
2023/03/28 08:03:07;;;;;;;;;;;7.20;74.80;;;7.55;46.84;99789.16;4950141;28;113902;-77
2023/03/28 08:05:36;;;;;;;;;;;7.20;74.60;;;7.56;46.83;99797.13;4949348;28;124231;-76
2023/03/28 08:08:04;;;;;;;;;;;7.20;74.20;;;7.62;46.47;99796.06;4949134;28;124068;-76
2023/03/28 08:10:33;;;;;;;;;;;7.30;74.50;;;7.70;46.73;99798.28;4950521;28;114767;-76
2023/03/28 08:12:59;;;;;;;;;;;7.30;74.40;;;7.75;46.20;99792.81;4952462;28;112788;-74
2023/03/28 08:15:26;;;;;;;;;;;7.40;74.40;;;7.76;45.37;99796.38;4951767;28;124681;-74
2023/03/28 08:17:52;;;;;;;;;;;7.40;73.10;;;7.75;44.86;99798.31;4951255;28;124614;-76
2023/03/28 08:20:20;;;;;;;;;;;7.40;71.80;;;7.74;44.73;99798.59;4956554;28;115465;-78
2023/03/28 08:22:49;;;;;;;;;;;7.40;71.80;;;7.72;45.48;99806.28;4953750;28;114561;-75
2023/03/28 08:25:17;;;;;;;;;;;7.40;72.20;;;7.74;45.38;99809.59;4968125;28;124448;-74
2023/03/28 08:27:43;;;;;;;;;;;7.40;72.20;;;7.72;45.27;99798.84;4952799;28;124635;-74
2023/03/28 08:30:12;;;;;;;;;;;7.40;72.40;;;7.79;45.17;99800.53;4951948;28;114127;-75
2023/03/28 08:32:38;;;;;;;;;;;7.40;72.00;;;7.81;44.96;99792.84;4949421;28;114423;-74
2023/03/28 08:35:05;;;;;;;;;;;7.50;71.90;;;7.85;45.19;99804.97;4950192;28;124693;-74
2023/03/28 08:37:32;;;;;;;;;;;7.50;72.00;;;7.91;44.88;99799.19;4965542;28;123996;-75
2023/03/28 08:39:59;;;;;;;;;;;7.50;71.80;;;8.00;44.35;99801.41;4936004;28;115646;-75
2023/03/28 08:43:01;;;;;;;;;;;7.60;71.80;;;8.08;44.29;99803.66;4955059;28;113190;-75
2023/03/28 08:45:32;;;;;;;;;;;7.60;70.80;;;8.09;44.13;99799.81;4949358;28;124402;-76
2023/03/28 08:48:19;;;;;;;;;;;7.70;71.10;;;8.11;43.93;99798.44;4951714;28;122754;-76
2023/03/28 08:50:50;;;;;;;;;;;7.80;71.00;;;8.19;44.01;99805.31;4942599;28;114432;-76
2023/03/28 08:53:33;;;;;;;;;;;7.80;70.90;;;8.23;43.78;99795.44;4930609;28;113886;-76
2023/03/28 08:56:03;;;;;;;;;;;7.80;70.30;;;8.22;42.84;99798.44;4941199;28;124195;-79
2023/03/28 08:58:52;;;;;;;;;;;7.90;69.50;;;8.18;42.36;99803.69;4952164;28;123448;-75
2023/03/28 09:01:21;;;;;;;;;;;7.80;68.60;;;8.10;42.62;99801.47;4951840;28;114398;-76
2023/03/28 09:03:49;;;;;;;;;;;7.80;68.40;;;8.07;43.04;99807.50;4908197;28;97147;-77
2023/03/28 09:06:15;;;;;;;;;;;7.80;68.40;;;8.04;42.39;99805.31;4950161;28;124053;-76
2023/03/28 09:08:55;;;;;;;;;;;7.80;67.50;;;8.06;42.30;99805.84;4951320;28;124797;-75
2023/03/28 09:11:28;;;;;;;;;;;7.80;67.60;;;8.09;41.43;99795.13;4950595;28;115722;-78
2023/03/28 09:14:06;;;;;;;;;;;7.80;66.00;;;8.14;41.31;99802.56;4952735;28;115322;-77
2023/03/28 09:16:38;;;;;;;;;;;7.80;65.70;;;8.20;41.36;99804.25;4947792;28;124269;-76
2023/03/28 09:19:11;;;;;;;;;;;7.90;66.30;;;8.28;41.33;99800.94;4949443;28;124064;-78
2023/03/28 09:21:58;;;;;;;;;;;7.90;66.30;;;8.35;41.49;99798.72;4946137;28;114664;-78
2023/03/28 09:24:47;;;;;;;;;;;8.00;66.40;;;8.42;40.17;99803.22;4936293;28;113550;-76
2023/03/28 09:27:45;;;;;;;;;;;8.00;64.40;;;8.40;39.42;99801.53;4950689;28;124287;-77
2023/03/28 09:30:19;;;;;;;;;;;8.00;63.10;;;8.34;38.55;99805.34;4956673;28;124077;-76
2023/03/28 09:32:46;;;;;;;;;;;8.00;61.70;;;8.27;38.64;99802.03;4948785;28;114471;-77
2023/03/28 09:35:18;;;;;;;;;;;8.00;61.30;;;8.28;38.86;99813.91;4950901;28;113747;-76
2023/03/28 09:38:00;;;;;;;;;;;8.00;62.00;;;8.36;39.25;99808.66;4947682;28;124144;-76
2023/03/28 09:40:29;;;;;;;;;;;8.10;62.70;;;8.44;39.21;99796.31;4948851;28;123314;-76
2023/03/28 09:43:02;;;;;;;;;;;8.10;62.70;;;8.54;38.76;99806.50;4945326;28;113849;-77
2023/03/28 09:45:36;;;;;;;;;;;8.20;61.90;;;8.58;38.60;99802.13;4951895;28;113065;-77
2023/03/28 09:48:13;;;;;;;;;;;8.20;61.70;;;8.63;38.58;99805.69;4950992;28;123320;-78
2023/03/28 09:50:40;;;;;;;;;;;8.30;61.40;;;8.65;37.96;99791.66;4944214;28;124165;-77
2023/03/28 09:53:18;;;;;;;;;;;8.30;60.60;;;8.69;37.65;99802.94;4945516;28;114391;-77
2023/03/28 09:55:44;;;;;;;;;;;8.30;60.30;;;8.71;38.10;99798.81;4935159;28;112890;-77
2023/03/28 09:58:14;;;;;;;;;;;8.30;60.80;;;8.77;37.75;99803.22;4945314;28;124745;-76
2023/03/28 10:00:43;;;;;;;;;;;8.50;60.50;;;8.81;37.48;99789.69;4949757;28;124020;-76
2023/03/28 10:03:21;;;;;;;;;;;8.40;59.70;;;8.82;37.49;99786.69;4949261;28;116144;-77
2023/03/28 10:05:50;;;;;;;;;;;8.40;60.00;;;8.88;37.76;99782.00;4950763;28;113968;-80
2023/03/28 10:08:22;;;;;;;;;;;8.50;60.10;;;8.90;36.91;99788.06;4951647;28;124304;-76
2023/03/28 10:11:15;;;;;;;;;;;8.50;58.70;;;8.90;37.20;99778.97;4955712;28;123220;-79
2023/03/28 10:13:49;;;;;;;;;;;8.50;59.20;;;8.92;37.13;99769.31;4948908;28;113581;-77
2023/03/28 10:16:24;;;;;;;;;;;8.60;58.40;;;8.94;37.12;99769.03;4945971;28;112935;-75
2023/03/28 10:18:50;;;;;;;;;;;8.60;58.40;;;8.99;36.95;99766.25;4952689;28;125289;-78
2023/03/28 10:21:20;;;;;;;;;;;8.70;58.50;;;9.02;37.24;99760.19;4936855;28;123431;-75
2023/03/28 10:23:55;;;;;;;;;;;8.70;58.50;;;9.06;36.90;99764.06;4948631;28;114344;-76
2023/03/28 10:26:23;;;;;;;;;;;8.70;58.20;;;9.11;37.18;99763.19;4947394;28;112904;-76
2023/03/28 10:28:53;;;;;;;;;;;8.80;58.60;;;9.18;36.58;99755.47;4947653;28;124127;-77
2023/03/28 10:31:28;;;;;;;;;;;8.80;57.80;;;9.26;36.58;99757.66;4936662;28;124076;-76
2023/03/28 10:33:56;;;;;;;;;;;8.90;58.10;;;9.34;36.35;99759.00;4949056;28;114219;-78
2023/03/28 10:36:32;;;;;;;;;;;8.90;58.40;;;9.43;36.50;99751.81;4937212;28;113272;-77
2023/03/28 10:38:59;;;;;;;;;;;9.00;58.50;;;9.54;36.35;99758.09;4955818;28;124741;-77
2023/03/28 10:41:27;;;;;;;;;;;9.10;58.30;;;9.62;35.68;99738.22;4935890;28;123785;-77
2023/03/28 10:43:58;;;;;;;;;;;9.20;57.30;;;9.69;34.85;99747.00;4949370;28;114581;-77
2023/03/28 10:46:34;;;;;;;;;;;9.20;55.50;;;9.72;34.73;99747.28;4949747;28;114360;-77
2023/03/28 10:49:03;;;;;;;;;;;9.20;56.20;;;9.77;34.50;99756.63;4948067;28;124260;-77
2023/03/28 10:51:36;;;;;;;;;;;9.20;55.20;;;9.81;34.74;99757.72;4947889;28;123656;-78
2023/03/28 10:54:02;;;;;;;;;;;9.30;55.80;;;9.78;34.12;99748.09;4949424;28;115430;-80
2023/03/28 10:56:37;;;;;;;;;;;9.40;53.80;;;9.77;33.90;99745.59;4952839;28;114263;-77
2023/03/28 10:59:15;;;;;;;;;;;9.30;53.90;;;9.76;34.11;99747.53;4945787;28;124803;-77
2023/03/28 11:02:06;;;;;;;;;;;9.40;54.20;;;9.72;34.40;99741.78;4959084;28;123977;-76
2023/03/28 11:04:50;;;;;;;;;;;9.40;54.60;;;9.70;35.17;99746.75;4947173;28;114249;-77
2023/03/28 11:07:17;;;;;;;;;;;9.40;55.00;;;9.76;35.27;99736.50;4939113;28;113773;-78
2023/03/28 11:10:05;;;;;;;;;;;9.40;55.40;;;9.86;35.07;99738.34;4936856;28;124250;-77
2023/03/28 11:12:56;;;;;;;;;;;9.50;55.70;;;9.89;35.42;99732.28;4943477;28;123660;-77
2023/03/28 11:15:37;;;;;;;;;;;9.60;55.70;;;9.98;35.07;99733.34;4947069;28;114161;-81
2023/03/28 11:18:39;;;;;;;;;;;9.60;56.00;;;10.13;34.73;99724.13;4949139;28;113829;-77
2023/03/28 11:21:15;;;;;;;;;;;9.70;55.80;;;10.23;35.18;99717.69;4948208;28;123820;-81
2023/03/28 11:23:44;;;;;;;;;;;9.70;55.80;;;10.33;34.60;99725.94;4941466;28;123934;-81
2023/03/28 11:26:16;;;;;;;;;;;9.80;55.10;;;10.38;34.72;99723.16;4947748;28;114015;-77
2023/03/28 11:29:22;;;;;;;;;;;9.90;54.90;;;10.48;34.29;99722.25;4946628;28;113513;-77
2023/03/28 11:31:57;;;;;;;;;;;10.00;53.60;;;10.64;34.24;99711.84;4931069;28;124829;-81
2023/03/28 11:35:02;;;;;;;;;;;10.10;54.20;;;10.82;34.77;99705.59;4940942;28;124345;-79
2023/03/28 11:37:33;;;;;;;;;;;10.30;54.70;;;10.97;34.10;99697.16;4950079;28;115269;-76
2023/03/28 11:40:09;;;;;;;;;;;10.40;54.10;;;11.06;33.57;99694.56;4946458;28;114114;-81
2023/03/28 11:42:40;;;;;;;;;;;10.50;52.90;;;11.12;33.61;99703.63;4945181;28;124906;-82
2023/03/28 11:45:24;;;;;;;;;;;10.60;53.30;;;11.23;33.66;99694.09;4950345;28;123989;-79
2023/03/28 11:48:04;;;;;;;;;;;10.70;53.80;;;11.28;33.17;99685.72;4951146;28;115701;-81
2023/03/28 11:50:34;;;;;;;;;;;10.70;52.70;;;11.30;33.02;99680.75;4950712;28;114174;-80
2023/03/28 11:53:04;;;;;;;;;;;10.70;52.10;;;11.36;33.58;99682.31;4940946;28;124335;-77
2023/03/28 11:55:35;;;;;;;;;;;10.80;52.80;;;11.47;33.25;99683.00;4948045;28;123522;-81
2023/03/28 11:58:13;;;;;;;;;;;10.90;52.70;;;11.50;32.62;99679.66;4963579;28;114378;-75
2023/03/28 12:00:49;;;;;;;;;;;11.00;52.10;;;11.50;32.68;99666.66;4933582;28;113482;-78